Time;durP1;ratioP1;P1;durP2;ratioP2;P2;SDS_P1;SDS_P2;PMS_P1;PMS_P2;Temp;Humidity;BMP_temperature;BMP_pressure;BME280_temperature;BME280_humidity;BME280_pressure;Samples;Min_cycle;Max_cycle;Signal;HPM_P1;HPM_P2
2023/11/10 00:02:14;;;;;;;3.03;1.27;;;;;10.00;97079.00;;;;4956886;28;20050;-64
2023/11/10 00:04:41;;;;;;;3.88;1.60;;;;;9.90;97073.00;;;;4956200;28;20094;-63
2023/11/10 00:07:08;;;;;;;4.05;1.70;;;;;10.00;97088.00;;;;4956668;28;20510;-66
2023/11/10 00:09:34;;;;;;;2.60;1.10;;;;;10.00;97083.00;;;;4956529;28;20047;-63
2023/11/10 00:12:01;;;;;;;2.90;1.08;;;;;9.90;97079.00;;;;4956706;28;20047;-64
2023/11/10 00:14:29;;;;;;;5.25;1.48;;;;;9.90;97072.00;;;;4955970;28;20459;-65
2023/11/10 00:17:09;;;;;;;3.10;1.02;;;;;9.90;97078.00;;;;4956596;28;20040;-64
2023/11/10 00:19:37;;;;;;;2.65;0.90;;;;;9.90;97078.00;;;;4956519;28;20515;-63
2023/11/10 00:22:04;;;;;;;4.65;1.50;;;;;9.80;97075.00;;;;4956316;28;20130;-64
2023/11/10 00:24:39;;;;;;;2.38;0.70;;;;;9.80;97077.00;;;;4955778;28;20540;-64
2023/11/10 00:27:10;;;;;;;2.53;0.85;;;;;9.80;97075.00;;;;4956490;28;20135;-63
2023/11/10 00:29:41;;;;;;;4.15;0.90;;;;;9.80;97076.00;;;;4956328;28;20047;-66
2023/11/10 00:32:12;;;;;;;4.05;0.70;;;;;9.70;97065.00;;;;4955066;28;20058;-63
2023/11/10 00:34:40;;;;;;;3.28;0.88;;;;;9.70;97073.00;;;;4954392;28;20047;-66
2023/11/10 00:37:07;;;;;;;2.47;0.85;;;;;9.70;97072.00;;;;4955247;29;20051;-63
2023/11/10 00:39:33;;;;;;;1.38;0.90;;;;;9.70;97082.00;;;;4954876;28;20146;-64
2023/11/10 00:42:00;;;;;;;3.80;0.82;;;;;9.70;97077.00;;;;4955318;29;20428;-63
2023/11/10 00:44:27;;;;;;;2.92;0.95;;;;;9.80;97078.00;;;;4955337;28;20058;-63
2023/11/10 00:46:54;;;;;;;1.58;1.05;;;;;9.80;97068.00;;;;4954698;28;20071;-63
2023/11/10 00:49:22;;;;;;;5.03;1.10;;;;;9.80;97066.00;;;;4956057;28;20044;-63
2023/11/10 00:51:48;;;;;;;3.53;0.90;;;;;9.80;97061.00;;;;4956125;28;20085;-63
2023/11/10 00:54:16;;;;;;;2.33;0.73;;;;;9.80;97040.00;;;;4953935;28;20059;-66
2023/11/10 00:56:44;;;;;;;2.05;0.80;;;;;9.80;97034.00;;;;4954712;29;20054;-63
2023/11/10 00:59:11;;;;;;;1.92;0.77;;;;;9.80;97043.00;;;;4954479;28;20075;-63
2023/11/10 01:01:38;;;;;;;3.20;0.88;;;;;9.90;97047.00;;;;4955578;28;20571;-66
2023/11/10 01:04:05;;;;;;;2.63;0.90;;;;;9.80;97042.00;;;;4938010;29;20075;-63
2023/11/10 01:06:32;;;;;;;1.42;0.70;;;;;9.90;97043.00;;;;4954229;29;20102;-65
2023/11/10 01:08:59;;;;;;;1.65;0.90;;;;;9.90;97041.00;;;;4954381;28;20154;-63
2023/11/10 01:11:26;;;;;;;2.95;1.02;;;;;9.90;97032.00;;;;4955711;28;20489;-64
2023/11/10 01:13:53;;;;;;;2.72;0.70;;;;;9.90;97036.00;;;;4953654;28;20126;-63
2023/11/10 01:16:20;;;;;;;2.88;0.80;;;;;9.90;97029.00;;;;4954183;28;20446;-65
2023/11/10 01:18:47;;;;;;;1.85;1.10;;;;;9.90;97015.00;;;;4938370;29;20110;-63
2023/11/10 01:21:15;;;;;;;3.00;0.95;;;;;9.80;97014.00;;;;4954108;28;20049;-63
2023/11/10 01:23:42;;;;;;;3.20;0.60;;;;;9.80;97019.00;;;;4953334;29;20055;-66
2023/11/10 01:26:08;;;;;;;1.20;0.55;;;;;9.80;97022.00;;;;4954842;28;20071;-64
2023/11/10 01:28:35;;;;;;;1.45;0.70;;;;;9.80;97023.00;;;;4955142;28;20043;-63
2023/11/10 01:31:03;;;;;;;2.03;0.85;;;;;9.80;97029.00;;;;4953956;29;20062;-64
2023/11/10 01:33:29;;;;;;;5.30;1.00;;;;;9.70;97032.00;;;;4954510;28;20039;-63
2023/11/10 01:35:56;;;;;;;1.92;0.90;;;;;9.70;97014.00;;;;4955059;28;20055;-63
2023/11/10 01:38:23;;;;;;;3.30;0.80;;;;;9.70;97009.00;;;;4955037;28;20043;-64
2023/11/10 01:40:50;;;;;;;3.47;0.80;;;;;9.70;97001.00;;;;4955176;28;20399;-64
2023/11/10 01:43:17;;;;;;;4.57;1.60;;;;;9.70;96983.00;;;;4953550;28;20055;-65
2023/11/10 01:45:44;;;;;;;3.85;1.30;;;;;9.60;96997.00;;;;4954630;28;20122;-64
2023/11/10 01:48:13;;;;;;;2.65;0.80;;;;;9.60;96987.00;;;;4954909;28;20048;-66
2023/11/10 01:50:41;;;;;;;1.65;0.73;;;;;9.60;96997.00;;;;4954852;28;20091;-60
2023/11/10 01:53:09;;;;;;;1.38;0.60;;;;;9.60;96988.00;;;;4954722;28;20043;-63
2023/11/10 01:55:37;;;;;;;1.17;0.75;;;;;9.60;96987.00;;;;4954080;28;20039;-63
2023/11/10 01:58:05;;;;;;;3.80;0.88;;;;;9.60;96984.00;;;;4953542;29;20149;-63
2023/11/10 02:00:32;;;;;;;4.30;1.10;;;;;9.60;96976.00;;;;4937550;28;20058;-64
2023/11/10 02:03:03;;;;;;;4.72;1.00;;;;;9.60;96979.00;;;;4953547;28;20054;-63
2023/11/10 02:05:31;;;;;;;3.97;0.98;;;;;9.70;96981.00;;;;4952915;28;20050;-63
2023/11/10 02:07:59;;;;;;;4.13;0.88;;;;;9.70;96977.00;;;;4954348;28;20047;-63
2023/11/10 02:10:25;;;;;;;4.63;1.20;;;;;9.70;96987.00;;;;4953204;28;20071;-65
2023/11/10 02:12:53;;;;;;;1.88;1.20;;;;;9.70;96984.00;;;;4953266;28;20067;-63
2023/11/10 02:15:21;;;;;;;1.95;0.80;;;;;9.70;96981.00;;;;4952658;28;20145;-66
2023/11/10 02:17:48;;;;;;;1.42;0.70;;;;;9.70;96969.00;;;;4953264;28;20132;-66
2023/11/10 02:20:15;;;;;;;2.92;0.82;;;;;9.70;96964.00;;;;4954410;28;20047;-63
2023/11/10 02:22:47;;;;;;;3.05;0.95;;;;;9.70;96960.00;;;;4954214;28;20047;-66
2023/11/10 02:25:15;;;;;;;1.83;0.70;;;;;9.70;96964.00;;;;4936625;29;20055;-65
2023/11/10 02:27:42;;;;;;;3.13;1.00;;;;;9.70;96962.00;;;;4954438;28;20044;-63
2023/11/10 02:30:10;;;;;;;2.42;0.90;;;;;9.70;96946.00;;;;4954295;28;20496;-63
2023/11/10 02:32:36;;;;;;;2.17;0.95;;;;;9.70;96952.00;;;;4954267;28;20083;-64
2023/11/10 02:35:04;;;;;;;2.15;0.88;;;;;9.60;96963.00;;;;4952197;28;20047;-65
2023/11/10 02:37:31;;;;;;;2.83;0.90;;;;;9.60;96966.00;;;;4952128;28;20054;-63
2023/11/10 02:39:58;;;;;;;3.50;1.15;;;;;9.60;96957.00;;;;4936980;29;20134;-63
2023/11/10 02:42:24;;;;;;;1.80;0.77;;;;;9.60;96950.00;;;;4954150;28;20102;-65
2023/11/10 02:44:51;;;;;;;5.70;1.27;;;;;9.50;96957.00;;;;4953292;28;20400;-63
2023/11/10 02:47:17;;;;;;;2.00;0.77;;;;;9.50;96954.00;;;;4952889;28;20492;-63
2023/11/10 02:49:44;;;;;;;3.95;1.15;;;;;9.50;96954.00;;;;4952897;29;20138;-64
2023/11/10 02:52:10;;;;;;;1.65;0.80;;;;;9.50;96963.00;;;;4953978;28;20055;-65
2023/11/10 02:54:37;;;;;;;1.70;0.85;;;;;9.50;96964.00;;;;4952058;28;20083;-64
2023/11/10 02:57:04;;;;;;;4.38;1.13;;;;;9.50;96966.00;;;;4952707;29;20051;-63
2023/11/10 02:59:31;;;;;;;7.32;1.38;;;;;9.50;96965.00;;;;4952805;29;20055;-63
2023/11/10 03:01:57;;;;;;;5.07;1.17;;;;;9.50;96968.00;;;;4954026;28;20046;-61
2023/11/10 03:04:26;;;;;;;3.78;1.00;;;;;9.50;96969.00;;;;4953150;28;20437;-63
2023/11/10 03:06:53;;;;;;;3.65;1.15;;;;;9.50;96967.00;;;;4953824;28;20055;-63
2023/11/10 03:09:19;;;;;;;1.92;0.88;;;;;9.50;96962.00;;;;4953932;28;20070;-63
2023/11/10 03:11:46;;;;;;;1.45;0.90;;;;;9.50;96961.00;;;;4952747;28;20142;-63
2023/11/10 03:14:12;;;;;;;2.90;1.00;;;;;9.50;96969.00;;;;4936182;28;20146;-63
2023/11/10 03:16:40;;;;;;;2.30;0.70;;;;;9.40;96969.00;;;;4936954;29;20106;-66
2023/11/10 03:19:07;;;;;;;2.67;0.80;;;;;9.50;96971.00;;;;4953783;28;20407;-63
2023/11/10 03:21:33;;;;;;;4.55;1.20;;;;;9.50;96961.00;;;;4952512;29;20055;-65
2023/11/10 03:24:00;;;;;;;4.82;1.00;;;;;9.50;96960.00;;;;4951793;28;20153;-64
2023/11/10 03:26:27;;;;;;;2.33;0.90;;;;;9.50;96960.00;;;;4952642;29;20051;-63
2023/11/10 03:28:54;;;;;;;2.47;0.90;;;;;9.60;96961.00;;;;4952363;28;20145;-64
2023/11/10 03:31:20;;;;;;;2.17;0.88;;;;;9.60;96979.00;;;;4953618;28;20043;-63
2023/11/10 03:33:47;;;;;;;5.80;1.50;;;;;9.60;96976.00;;;;4953044;28;20056;-63
2023/11/10 03:36:14;;;;;;;2.72;1.23;;;;;9.40;96978.00;;;;4952225;28;20512;-65
2023/11/10 03:38:40;;;;;;;5.32;1.08;;;;;9.20;96974.00;;;;4952431;29;20044;-63
2023/11/10 03:41:08;;;;;;;1.45;0.90;;;;;9.00;96969.00;;;;4952261;28;20146;-66
2023/11/10 03:43:34;;;;;;;2.83;1.20;;;;;8.90;96965.00;;;;4951518;28;20407;-63
2023/11/10 03:46:01;;;;;;;4.63;1.00;;;;;8.90;96980.00;;;;4952514;28;20453;-63
2023/11/10 03:48:27;;;;;;;3.92;0.85;;;;;8.90;96970.00;;;;4952549;28;20423;-63
2023/11/10 03:50:54;;;;;;;7.72;1.15;;;;;8.90;96965.00;;;;4955749;28;20047;-65
2023/11/10 03:53:21;;;;;;;1.70;0.80;;;;;8.90;96974.00;;;;4956951;28;20043;-64
2023/11/10 03:55:48;;;;;;;3.42;1.10;;;;;8.80;96964.00;;;;4956900;28;20055;-63
2023/11/10 03:58:15;;;;;;;3.92;1.13;;;;;8.80;96974.00;;;;4955692;28;20057;-63
2023/11/10 04:00:41;;;;;;;3.58;1.10;;;;;8.80;96970.00;;;;4956839;28;20459;-63
2023/11/10 04:03:15;;;;;;;4.13;1.15;;;;;8.90;96969.00;;;;4955542;28;20051;-66
2023/11/10 04:05:44;;;;;;;1.48;1.08;;;;;8.90;96973.00;;;;4938782;29;20065;-63
2023/11/10 04:08:11;;;;;;;3.45;1.00;;;;;9.00;96979.00;;;;4955594;29;20055;-63
2023/11/10 04:10:38;;;;;;;4.30;1.48;;;;;9.00;96979.00;;;;4939624;29;20051;-63
2023/11/10 04:13:04;;;;;;;4.68;1.67;;;;;9.10;96977.00;;;;4939642;29;20055;-63
2023/11/10 04:15:31;;;;;;;8.65;2.00;;;;;9.20;96982.00;;;;4955101;29;20047;-66
2023/11/10 04:18:00;;;;;;;3.70;1.42;;;;;9.20;96973.00;;;;4955511;28;20146;-63
2023/11/10 04:20:26;;;;;;;4.15;1.50;;;;;9.30;96975.00;;;;4955320;28;20047;-63
2023/11/10 04:22:53;;;;;;;3.63;1.20;;;;;9.30;96973.00;;;;4955395;29;20098;-65
2023/11/10 04:25:20;;;;;;;3.40;1.13;;;;;9.30;96976.00;;;;4957036;28;20039;-64
2023/11/10 04:27:46;;;;;;;3.10;1.17;;;;;9.30;96984.00;;;;4965923;28;20412;-64
2023/11/10 04:30:15;;;;;;;4.32;1.20;;;;;9.30;96984.00;;;;4964693;28;20453;-61
2023/11/10 04:32:42;;;;;;;3.50;1.40;;;;;9.20;96985.00;;;;4968248;28;20054;-62
2023/11/10 04:35:15;;;;;;;4.13;1.48;;;;;9.20;96985.00;;;;4964894;28;20456;-63
2023/11/10 04:37:42;;;;;;;5.53;1.77;;;;;9.30;96982.00;;;;4950502;29;20083;-61
2023/11/10 04:40:12;;;;;;;4.57;0.98;;;;;9.30;96983.00;;;;4968938;28;20116;-63
2023/11/10 04:42:39;;;;;;;4.10;0.95;;;;;9.30;96981.00;;;;4971066;28;20047;-60
2023/11/10 04:45:07;;;;;;;3.85;1.60;;;;;9.30;96977.00;;;;4967224;29;20122;-63
2023/11/10 04:47:36;;;;;;;3.55;1.10;;;;;9.30;96974.00;;;;4969657;28;20074;-61
2023/11/10 04:50:04;;;;;;;4.50;1.10;;;;;9.30;96976.00;;;;4971177;28;20139;-61
2023/11/10 04:52:30;;;;;;;1.67;0.90;;;;;9.30;96983.00;;;;4973602;28;20051;-67
2023/11/10 04:54:57;;;;;;;5.82;1.00;;;;;9.20;96996.00;;;;4974662;29;20086;-63
2023/11/10 04:57:26;;;;;;;1.35;0.70;;;;;9.30;97007.00;;;;4975786;29;20066;-63
2023/11/10 04:59:54;;;;;;;5.30;0.80;;;;;9.30;97010.00;;;;4976750;28;20081;-64
2023/11/10 05:02:22;;;;;;;3.45;0.70;;;;;9.30;96991.00;;;;4978051;28;20043;-61
2023/11/10 05:04:50;;;;;;;2.03;0.75;;;;;9.30;97002.00;;;;4973192;28;20054;-64
2023/11/10 05:07:16;;;;;;;1.58;0.70;;;;;9.30;97002.00;;;;4967338;29;20191;-62
2023/11/10 05:09:43;;;;;;;3.22;0.93;;;;;9.30;96992.00;;;;4970253;28;20089;-63
2023/11/10 05:12:09;;;;;;;2.95;0.80;;;;;9.30;97011.00;;;;4970076;28;20055;-64
2023/11/10 05:14:41;;;;;;;6.63;1.45;;;;;9.20;97005.00;;;;4969342;28;20165;-64
2023/11/10 05:17:07;;;;;;;4.20;1.10;;;;;9.10;96998.00;;;;4967131;29;20051;-61
2023/11/10 05:19:34;;;;;;;2.42;0.60;;;;;9.10;96999.00;;;;4964757;28;20051;-62
2023/11/10 05:22:00;;;;;;;2.70;0.85;;;;;9.00;96996.00;;;;4962732;29;20058;-62
2023/11/10 05:24:27;;;;;;;2.00;0.63;;;;;8.90;96997.00;;;;4959661;29;20043;-63
2023/11/10 05:26:54;;;;;;;0.63;0.57;;;;;8.90;97001.00;;;;4960239;28;20459;-62
2023/11/10 05:29:20;;;;;;;1.65;0.60;;;;;8.90;96998.00;;;;4955041;28;20496;-62
2023/11/10 05:31:47;;;;;;;0.60;0.50;;;;;8.90;96990.00;;;;4955732;28;20054;-65
2023/11/10 05:34:16;;;;;;;1.55;0.50;;;;;8.90;96993.00;;;;4953764;29;20118;-62
2023/11/10 05:36:44;;;;;;;1.40;0.90;;;;;8.90;96988.00;;;;4954061;28;20142;-63
2023/11/10 05:39:11;;;;;;;3.38;0.80;;;;;8.90;96993.00;;;;4954083;28;20408;-62
2023/11/10 05:41:40;;;;;;;2.10;0.70;;;;;8.90;96996.00;;;;4954244;29;20051;-64
2023/11/10 05:44:07;;;;;;;2.70;0.80;;;;;8.90;96984.00;;;;4954788;28;20401;-62
2023/11/10 05:46:34;;;;;;;1.08;0.65;;;;;8.90;96992.00;;;;4958040;28;20095;-63
2023/11/10 05:49:00;;;;;;;2.90;0.90;;;;;8.80;96991.00;;;;4959973;28;20047;-62
2023/11/10 05:51:28;;;;;;;1.95;0.80;;;;;8.80;97002.00;;;;4956926;28;20046;-61
2023/11/10 05:53:54;;;;;;;2.97;0.60;;;;;8.70;97004.00;;;;4955460;28;20050;-62
2023/11/10 05:56:23;;;;;;;5.50;0.77;;;;;8.70;96992.00;;;;4954556;29;20066;-62
2023/11/10 05:58:51;;;;;;;1.60;0.80;;;;;8.60;97007.00;;;;4955342;28;20099;-65
2023/11/10 06:01:24;;;;;;;1.15;0.80;;;;;8.50;97002.00;;;;4955157;28;20054;-63
2023/11/10 06:03:50;;;;;;;2.03;1.10;;;;;8.60;97002.00;;;;4954410;28;20050;-62
2023/11/10 06:06:18;;;;;;;3.95;0.95;;;;;8.60;97002.00;;;;4953812;29;20083;-61
2023/11/10 06:08:44;;;;;;;2.40;0.65;;;;;8.60;97002.00;;;;4955262;28;20063;-62
2023/11/10 06:11:22;;;;;;;3.08;0.90;;;;;8.60;97020.00;;;;4954769;28;20054;-62
2023/11/10 06:13:49;;;;;;;1.55;0.75;;;;;8.60;97016.00;;;;4953312;29;20134;-64
2023/11/10 06:16:16;;;;;;;1.20;0.70;;;;;8.60;97016.00;;;;4955052;28;20385;-61
2023/11/10 06:18:46;;;;;;;1.58;0.70;;;;;8.60;97019.00;;;;4953720;29;20051;-61
2023/11/10 06:21:13;;;;;;;2.30;1.00;;;;;8.60;97027.00;;;;4955701;28;20039;-65
2023/11/10 06:23:40;;;;;;;3.33;0.80;;;;;8.60;97028.00;;;;4953644;29;20046;-65
2023/11/10 06:26:07;;;;;;;4.18;0.88;;;;;8.60;97027.00;;;;4958651;28;20047;-64
2023/11/10 06:28:36;;;;;;;1.20;0.90;;;;;8.70;97031.00;;;;4960698;28;20055;-64
2023/11/10 06:31:04;;;;;;;2.33;0.75;;;;;8.80;97039.00;;;;4959297;28;20130;-65
2023/11/10 06:33:31;;;;;;;2.75;0.88;;;;;8.80;97039.00;;;;4954009;29;20047;-65
2023/11/10 06:35:58;;;;;;;3.28;0.95;;;;;8.80;97039.00;;;;4954255;28;20134;-65
2023/11/10 06:38:25;;;;;;;1.40;1.00;;;;;8.80;97039.00;;;;4954600;28;20119;-64
2023/11/10 06:40:53;;;;;;;2.28;1.13;;;;;8.90;97035.00;;;;4955621;28;20043;-65
2023/11/10 06:43:20;;;;;;;4.53;1.08;;;;;8.90;97042.00;;;;4954889;28;20047;-63
2023/11/10 06:45:50;;;;;;;2.75;1.00;;;;;8.90;97049.00;;;;4953576;28;20592;-65
2023/11/10 06:48:17;;;;;;;3.22;1.33;;;;;8.90;97059.00;;;;4953750;28;20082;-65
2023/11/10 06:50:44;;;;;;;2.95;0.90;;;;;9.00;97058.00;;;;4955221;28;20081;-65
2023/11/10 06:53:11;;;;;;;2.53;1.55;;;;;8.90;97062.00;;;;4937803;28;20504;-65
2023/11/10 06:55:38;;;;;;;1.70;1.00;;;;;8.90;97064.00;;;;4953333;29;20054;-63
2023/11/10 06:58:06;;;;;;;5.80;1.30;;;;;8.90;97065.00;;;;4956718;28;20055;-64
2023/11/10 07:00:33;;;;;;;3.05;1.02;;;;;9.00;97055.00;;;;4955537;28;20081;-61
2023/11/10 07:03:00;;;;;;;2.13;0.77;;;;;9.00;97048.00;;;;4954776;29;20055;-61
2023/11/10 07:05:27;;;;;;;3.63;1.00;;;;;9.00;97056.00;;;;4956139;28;20050;-62
2023/11/10 07:07:54;;;;;;;4.03;1.00;;;;;9.00;97065.00;;;;4956487;29;20500;-61
2023/11/10 07:10:21;;;;;;;5.88;1.67;;;;;9.00;97058.00;;;;4954657;28;20053;-61
2023/11/10 07:12:47;;;;;;;4.70;1.42;;;;;9.00;97052.00;;;;4955118;28;20047;-62
2023/11/10 07:15:14;;;;;;;5.40;2.00;;;;;9.00;97060.00;;;;4955446;28;20043;-65
2023/11/10 07:17:41;;;;;;;5.30;2.22;;;;;9.10;97069.00;;;;4955731;28;20126;-61
2023/11/10 07:20:11;;;;;;;3.45;1.27;;;;;9.10;97067.00;;;;4953513;28;20142;-63
2023/11/10 07:22:38;;;;;;;4.10;1.20;;;;;9.10;97071.00;;;;4954511;28;20180;-65
2023/11/10 07:25:06;;;;;;;2.60;1.23;;;;;9.10;97075.00;;;;4956795;28;20079;-62
2023/11/10 07:27:33;;;;;;;3.22;1.20;;;;;9.30;97075.00;;;;4958429;28;20086;-61
2023/11/10 07:30:00;;;;;;;1.85;1.05;;;;;9.30;97076.00;;;;4959502;28;20047;-61
2023/11/10 07:32:29;;;;;;;5.10;1.65;;;;;9.30;97071.00;;;;4959069;28;20126;-63
2023/11/10 07:34:55;;;;;;;5.47;1.20;;;;;9.30;97064.00;;;;4957265;28;20051;-62
2023/11/10 07:37:25;;;;;;;2.20;1.27;;;;;9.30;97077.00;;;;4957510;28;20047;-62
2023/11/10 07:39:52;;;;;;;2.95;1.27;;;;;9.30;97077.00;;;;4956129;29;20051;-62
2023/11/10 07:42:20;;;;;;;4.93;1.38;;;;;9.20;97080.00;;;;4957083;29;20421;-62
2023/11/10 07:44:47;;;;;;;2.15;0.93;;;;;9.20;97084.00;;;;4956186;28;20051;-62
2023/11/10 07:47:14;;;;;;;8.07;1.27;;;;;9.30;97081.00;;;;4957443;28;20126;-62
2023/11/10 07:49:40;;;;;;;4.40;1.42;;;;;9.20;97086.00;;;;4939966;29;20057;-62
2023/11/10 07:52:08;;;;;;;5.40;1.60;;;;;9.30;97089.00;;;;4957008;28;20488;-64
2023/11/10 07:54:35;;;;;;;7.72;2.40;;;;;9.30;97095.00;;;;4956407;28;20511;-63
2023/11/10 07:57:02;;;;;;;3.47;1.95;;;;;9.30;97091.00;;;;4955972;29;20043;-62
2023/11/10 07:59:28;;;;;;;3.50;2.40;;;;;9.40;97101.00;;;;4957009;28;20484;-62
2023/11/10 08:01:55;;;;;;;2.85;1.85;;;;;9.40;97089.00;;;;4956823;28;20508;-65
2023/11/10 08:04:22;;;;;;;5.13;1.60;;;;;9.30;97093.00;;;;4956259;28;20481;-63
2023/11/10 08:06:48;;;;;;;2.80;1.23;;;;;9.30;97108.00;;;;4956672;28;20070;-62
2023/11/10 08:09:15;;;;;;;4.38;1.52;;;;;9.30;97102.00;;;;4957042;28;20047;-62
2023/11/10 08:11:43;;;;;;;4.90;1.50;;;;;9.30;97114.00;;;;4955642;28;20098;-62
2023/11/10 08:14:20;;;;;;;1.67;1.13;;;;;9.20;97105.00;;;;4956336;28;20051;-62
2023/11/10 08:16:47;;;;;;;1.55;1.10;;;;;9.20;97103.00;;;;4956815;28;20051;-62
2023/11/10 08:19:15;;;;;;;3.13;1.20;;;;;9.20;97106.00;;;;4955531;29;20051;-65
2023/11/10 08:21:42;;;;;;;2.80;1.35;;;;;9.20;97105.00;;;;4956634;28;20043;-64
2023/11/10 08:24:09;;;;;;;2.22;1.10;;;;;9.30;97104.00;;;;4956059;28;20484;-64
2023/11/10 08:26:36;;;;;;;3.53;1.63;;;;;9.30;97112.00;;;;4956647;28;20054;-64
2023/11/10 08:29:04;;;;;;;7.22;1.30;;;;;9.30;97092.00;;;;4957037;28;20053;-64
2023/11/10 08:31:30;;;;;;;3.90;0.93;;;;;9.40;97096.00;;;;4956556;29;20058;-64
2023/11/10 08:33:57;;;;;;;3.90;1.30;;;;;9.60;97115.00;;;;4956081;28;20050;-64
2023/11/10 08:36:24;;;;;;;2.72;1.35;;;;;9.60;97116.00;;;;4955280;28;20039;-64
2023/11/10 08:38:50;;;;;;;3.67;1.90;;;;;9.50;97121.00;;;;4956458;28;20055;-63
2023/11/10 08:41:17;;;;;;;3.08;0.90;;;;;9.50;97108.00;;;;4956388;28;20047;-64
2023/11/10 08:43:46;;;;;;;1.10;1.00;;;;;9.50;97121.00;;;;4955609;28;20047;-65
2023/11/10 08:46:13;;;;;;;3.42;1.30;;;;;9.60;97110.00;;;;4956056;28;20122;-64
2023/11/10 08:48:39;;;;;;;2.10;1.20;;;;;9.80;97116.00;;;;4956110;28;20430;-64
2023/11/10 08:51:06;;;;;;;4.88;1.65;;;;;9.80;97113.00;;;;4956143;28;20047;-65
2023/11/10 08:53:33;;;;;;;3.70;1.25;;;;;9.70;97119.00;;;;4955369;28;20054;-64
2023/11/10 08:56:04;;;;;;;3.40;1.45;;;;;9.80;97115.00;;;;4956023;28;20086;-64
2023/11/10 08:58:31;;;;;;;4.95;2.00;;;;;9.90;97116.00;;;;4954621;29;20043;-63
2023/11/10 09:00:58;;;;;;;2.65;1.20;;;;;10.10;97105.00;;;;4956034;28;20047;-65
2023/11/10 09:03:24;;;;;;;2.83;1.55;;;;;10.30;97103.00;;;;4955202;28;20047;-65
2023/11/10 09:05:51;;;;;;;4.00;1.48;;;;;10.30;97110.00;;;;4938219;29;20062;-65
2023/11/10 09:08:18;;;;;;;4.82;1.80;;;;;10.20;97111.00;;;;4955830;28;20126;-65
2023/11/10 09:10:44;;;;;;;2.42;1.40;;;;;10.20;97100.00;;;;4955822;28;20393;-65
2023/11/10 09:13:11;;;;;;;3.40;1.40;;;;;10.10;97102.00;;;;4955702;28;20700;-65
2023/11/10 09:15:37;;;;;;;2.70;1.20;;;;;10.00;97101.00;;;;4955211;28;20563;-64
2023/11/10 09:18:04;;;;;;;2.25;1.35;;;;;10.00;97098.00;;;;4955799;28;20050;-65
2023/11/10 09:20:31;;;;;;;4.60;1.15;;;;;10.10;97098.00;;;;4955513;28;20058;-65
2023/11/10 09:22:59;;;;;;;4.10;1.60;;;;;10.10;97093.00;;;;4955691;28;20058;-64
2023/11/10 09:25:25;;;;;;;4.30;1.20;;;;;10.10;97092.00;;;;4953616;28;20460;-64
2023/11/10 09:27:56;;;;;;;6.18;2.40;;;;;10.10;97101.00;;;;4955349;28;20516;-65
2023/11/10 09:30:26;;;;;;;11.02;6.47;;;;;10.10;97100.00;;;;4955515;28;20047;-64
2023/11/10 09:32:56;;;;;;;4.68;1.63;;;;;10.10;97103.00;;;;4954175;28;20139;-64
2023/11/10 09:35:23;;;;;;;2.78;1.48;;;;;10.10;97108.00;;;;4954611;28;20043;-64
2023/11/10 09:37:49;;;;;;;1.52;1.42;;;;;10.20;97112.00;;;;4955282;28;20075;-65
2023/11/10 09:40:16;;;;;;;2.10;1.33;;;;;10.30;97119.00;;;;4955207;28;20051;-65
2023/11/10 09:42:42;;;;;;;2.63;1.30;;;;;10.20;97120.00;;;;4953885;28;20047;-64
2023/11/10 09:45:12;;;;;;;2.60;1.20;;;;;10.20;97121.00;;;;4954470;28;20047;-65
2023/11/10 09:47:44;;;;;;;4.72;2.17;;;;;10.30;97125.00;;;;4954890;28;20507;-66
2023/11/10 09:50:18;;;;;;;5.15;1.77;;;;;10.30;97132.00;;;;4953907;28;20090;-66
2023/11/10 09:52:49;;;;;;;2.38;1.40;;;;;10.30;97120.00;;;;4954899;28;20051;-65
2023/11/10 09:55:16;;;;;;;1.40;1.02;;;;;10.30;97122.00;;;;4953082;29;20098;-65
2023/11/10 09:57:43;;;;;;;3.67;1.60;;;;;10.30;97123.00;;;;4953603;28;20134;-65
2023/11/10 10:00:13;;;;;;;7.60;2.13;;;;;10.20;97126.00;;;;4937871;29;20138;-65
2023/11/10 10:02:40;;;;;;;2.50;1.13;;;;;10.20;97123.00;;;;4954843;28;20047;-65
2023/11/10 10:05:08;;;;;;;3.30;1.20;;;;;10.20;97113.00;;;;4953999;28;20118;-65
2023/11/10 10:07:35;;;;;;;2.65;0.95;;;;;10.20;97114.00;;;;4953423;29;20544;-64
2023/11/10 10:10:02;;;;;;;3.17;1.10;;;;;10.10;97121.00;;;;4954624;28;20047;-65
2023/11/10 10:12:29;;;;;;;3.55;1.20;;;;;10.20;97117.00;;;;4954617;28;20046;-65
2023/11/10 10:14:56;;;;;;;2.67;1.65;;;;;10.30;97119.00;;;;4953810;28;20055;-65
2023/11/10 10:17:30;;;;;;;4.05;1.40;;;;;10.40;97111.00;;;;4954400;28;20051;-63
2023/11/10 10:20:14;;;;;;;4.22;1.17;;;;;10.70;97109.00;;;;4954870;28;20051;-65
2023/11/10 10:22:48;;;;;;;3.78;1.40;;;;;10.80;97104.00;;;;4954396;28;20082;-65
2023/11/10 10:25:16;;;;;;;5.05;2.50;;;;;10.90;97111.00;;;;4953600;28;20054;-65
2023/11/10 10:27:46;;;;;;;5.45;2.25;;;;;11.00;97116.00;;;;4954338;28;20055;-65
2023/11/10 10:30:14;;;;;;;3.90;1.30;;;;;10.90;97110.00;;;;4954247;28;20051;-65
2023/11/10 10:32:41;;;;;;;4.78;1.52;;;;;10.80;97109.00;;;;4954349;28;20047;-65
2023/11/10 10:35:08;;;;;;;1.67;1.17;;;;;10.70;97096.00;;;;4953475;28;20039;-64
2023/11/10 10:37:39;;;;;;;3.90;1.10;;;;;10.70;97087.00;;;;4954174;28;20086;-65
2023/11/10 10:40:09;;;;;;;2.40;1.10;;;;;10.80;97086.00;;;;4954177;28;20504;-64
2023/11/10 10:42:42;;;;;;;3.10;1.27;;;;;10.90;97084.00;;;;4954058;28;20411;-65
2023/11/10 10:45:12;;;;;;;4.07;1.52;;;;;10.90;97081.00;;;;4953275;28;20047;-66
2023/11/10 10:47:40;;;;;;;6.85;4.20;;;;;10.80;97079.00;;;;4954124;28;20086;-65
2023/11/10 10:50:09;;;;;;;7.50;2.90;;;;;10.70;97077.00;;;;4953960;28;20055;-65
2023/11/10 10:52:36;;;;;;;2.85;1.77;;;;;10.70;97074.00;;;;4954000;28;20386;-65
2023/11/10 10:55:07;;;;;;;5.60;1.95;;;;;10.80;97070.00;;;;4951988;28;20061;-65
2023/11/10 10:57:33;;;;;;;4.28;1.60;;;;;10.90;97065.00;;;;4953939;28;20167;-65
2023/11/10 11:00:09;;;;;;;5.30;2.22;;;;;10.90;97063.00;;;;4953255;28;20187;-64
2023/11/10 11:02:41;;;;;;;3.03;1.10;;;;;10.90;97052.00;;;;4954061;28;20121;-66
2023/11/10 11:05:20;;;;;;;6.07;1.63;;;;;11.10;97052.00;;;;4953106;28;20051;-66
2023/11/10 11:07:52;;;;;;;6.88;1.90;;;;;11.10;97051.00;;;;4953850;28;20043;-65
2023/11/10 11:10:56;;;;;;;8.20;3.33;;;;;11.20;97043.00;;;;4953919;28;20404;-66
2023/11/10 11:13:34;;;;;;;5.25;1.85;;;;;11.30;97046.00;;;;4953450;28;20071;-64
2023/11/10 11:16:38;;;;;;;11.18;2.60;;;;;11.50;97052.00;;;;4953961;28;20393;-66
2023/11/10 11:19:08;;;;;;;9.40;2.90;;;;;11.50;97052.00;;;;4953791;28;20051;-66
2023/11/10 11:21:36;;;;;;;7.60;1.90;;;;;11.60;97045.00;;;;4953730;28;20054;-65
2023/11/10 11:24:06;;;;;;;2.38;1.33;;;;;11.80;97038.00;;;;4951824;29;20059;-65
2023/11/10 11:26:36;;;;;;;3.60;1.40;;;;;11.80;97045.00;;;;4953625;28;20058;-65
2023/11/10 11:29:05;;;;;;;6.68;2.30;;;;;11.80;97053.00;;;;4953714;28;20035;-66
2023/11/10 11:31:46;;;;;;;4.80;1.40;;;;;11.70;97055.00;;;;4953601;28;20047;-65
2023/11/10 11:34:16;;;;;;;5.47;1.70;;;;;11.60;97058.00;;;;4953016;28;20043;-65
2023/11/10 11:36:46;;;;;;;4.82;1.40;;;;;11.50;97037.00;;;;4953672;28;20385;-65
2023/11/10 11:39:15;;;;;;;2.97;1.40;;;;;11.50;97041.00;;;;4953621;28;20046;-66
2023/11/10 11:41:48;;;;;;;5.18;1.60;;;;;11.50;97049.00;;;;4953537;28;20130;-66
2023/11/10 11:44:24;;;;;;;5.38;1.20;;;;;11.50;97045.00;;;;4953008;28;20486;-65
2023/11/10 11:46:58;;;;;;;5.55;2.10;;;;;11.60;97050.00;;;;4953607;28;20051;-66
2023/11/10 11:49:26;;;;;;;5.45;1.95;;;;;11.70;97050.00;;;;4952502;28;20054;-66
2023/11/10 11:51:54;;;;;;;4.35;1.95;;;;;11.70;97044.00;;;;4953391;28;20098;-65
2023/11/10 11:54:24;;;;;;;3.25;1.30;;;;;11.70;97044.00;;;;4952806;28;20560;-65
2023/11/10 11:56:52;;;;;;;5.30;1.42;;;;;11.70;97038.00;;;;4952206;28;20043;-65
2023/11/10 11:59:20;;;;;;;4.05;1.48;;;;;11.60;97039.00;;;;4952192;29;20043;-65
2023/11/10 12:01:46;;;;;;;8.07;2.38;;;;;11.50;97036.00;;;;4952060;28;20048;-65
2023/11/10 12:04:13;;;;;;;4.22;1.65;;;;;11.50;97035.00;;;;4952739;28;20043;-65
2023/11/10 12:06:41;;;;;;;3.63;1.70;;;;;11.40;97025.00;;;;4953122;28;20045;-64
2023/11/10 12:09:09;;;;;;;6.72;2.00;;;;;11.40;97029.00;;;;4953424;28;20047;-66
2023/11/10 12:11:37;;;;;;;5.85;1.42;;;;;11.40;97018.00;;;;4956670;28;20599;-65
2023/11/10 12:14:05;;;;;;;5.38;1.90;;;;;11.40;97017.00;;;;4956199;28;20086;-65
2023/11/10 12:16:33;;;;;;;6.93;1.70;;;;;11.40;97024.00;;;;4956755;28;20047;-66
2023/11/10 12:19:07;;;;;;;4.95;1.70;;;;;11.40;97020.00;;;;4956944;28;20074;-65
2023/11/10 12:21:34;;;;;;;4.15;1.60;;;;;11.30;97021.00;;;;4955476;29;20039;-65
2023/11/10 12:24:06;;;;;;;6.85;1.50;;;;;11.30;97016.00;;;;4955922;28;20054;-64
2023/11/10 12:26:38;;;;;;;5.05;1.95;;;;;11.30;97014.00;;;;4956658;28;20502;-64
2023/11/10 12:29:08;;;;;;;4.25;1.77;;;;;11.40;97018.00;;;;4956377;28;20130;-65